Cooks, MI

01:11 PM EST del 28 Gennaio 2015 (GMT -0500)
Delta County | Change Station
CLOSE
Current Station
Aeroporto
Location: Escanaba,
Altitudine: 607 ft
Stazioni meteo nelle vicinanze

Alt. 607 ft 45.72 °N, 87.09 °W | Updated 16 minutes ago

Coperto
Coperto
27 °F
Sembra 16 °F
N
13
Vento Variabile Vento da Sud
Gusts 16 mph

Oggi
Massima -- | Minima -- °F
--% Possibilità di precip.
Ieri
Massima -- | Minima -- °F
Precip. -- in
8:12 AM 5:45 PM
Gobba a ponente, 66% visible
Pressione 30.15 in
Visibilità 10.0 miglia
Nuvole Coperto 7000 ft
Raffreddamento del vento 16 °F
Punto di rugiada 19 °F
Umidità 74%
Piovosità 0.00 in
Spessore del manto nevoso Non disponibile.
Raggi UV 1 fuori da 12
Polline .10 fuori da 12
Qualità dell'aria Non disponibile.
Flu Activity Non disponibile.
METAR KESC 281755Z AUTO 19011G14KT 10SM OVC070 M03/M07 A3015 RMK AO1 11030 21070 57024

More Conditions Fewer Conditions

Pressione 30.15 in
Visibilità 10.0 miglia
Nuvole Coperto 7000 ft
Raffreddamento del vento 16 °F
Punto di rugiada 19 °F
Umidità 74%
Piovosità 0.00 in
Spessore del manto nevoso Non disponibile.
Raggi UV 1 fuori da 12
Polline .10 fuori da 12
Qualità dell'aria Non disponibile.
Flu Activity Non disponibile.
METAR KESC 281755Z AUTO 19011G14KT 10SM OVC070 M03/M07 A3015 RMK AO1 11030 21070 57024

More Conditions Fewer Conditions

10-Day Weather Forecast

Almanac

Astronomia

Jan. 28, 2015 Alba Tramonto
Ora attuale
Crepuscolo civile
Crepuscolo nautico
Crepuscolo astronomico
Luna
Estensione della luce visibile
Lunghezza del giorno
Tomorrow will be .
, % of the Moon is Illuminated

Gli estremi di oggi

State Highs State Lows

Community

WunderPhotos

Upload Photos

1,791,237 foto caricate!

WunderBlogs® & News

Nearby

Qualità dell'aria

  Qualità dell'aria Indice AQ Inquinante
Not available.

Profondità neve

Stazione Profondità Altitudine

Attività sismica

Città  Distanza Mag. Data & Ora
Minimo Magnitudo Mostrato è 2.5.

Temperature delle acque costiere

Località Temperatura

Stazioni meteo nelle vicinanze